sensor_id;sensor_type;location;lat;lon;timestamp;P1;durP1;ratioP1;P2;durP2;ratioP2
4051;SDS011;2040;50.924;11.604;2023-05-16T00:01:07;9.63;;;6.00;;
4051;SDS011;2040;50.924;11.604;2023-05-16T00:03:33;6.83;;;5.47;;
4051;SDS011;2040;50.924;11.604;2023-05-16T00:05:59;8.30;;;5.30;;
4051;SDS011;2040;50.924;11.604;2023-05-16T00:08:26;8.93;;;6.50;;
4051;SDS011;2040;50.924;11.604;2023-05-16T00:10:52;7.93;;;5.20;;
4051;SDS011;2040;50.924;11.604;2023-05-16T00:13:18;8.90;;;5.47;;
4051;SDS011;2040;50.924;11.604;2023-05-16T00:15:48;8.60;;;6.47;;
4051;SDS011;2040;50.924;11.604;2023-05-16T00:18:15;8.40;;;5.57;;
4051;SDS011;2040;50.924;11.604;2023-05-16T00:20:41;7.80;;;5.70;;
4051;SDS011;2040;50.924;11.604;2023-05-16T00:23:07;12.20;;;5.23;;
4051;SDS011;2040;50.924;11.604;2023-05-16T00:25:32;9.20;;;6.10;;
4051;SDS011;2040;50.924;11.604;2023-05-16T00:27:58;10.70;;;7.40;;
4051;SDS011;2040;50.924;11.604;2023-05-16T00:30:23;9.93;;;6.40;;
4051;SDS011;2040;50.924;11.604;2023-05-16T00:32:49;8.47;;;6.37;;
4051;SDS011;2040;50.924;11.604;2023-05-16T00:35:14;11.03;;;6.60;;
4051;SDS011;2040;50.924;11.604;2023-05-16T00:37:40;12.00;;;7.00;;
4051;SDS011;2040;50.924;11.604;2023-05-16T00:40:06;13.10;;;6.90;;
4051;SDS011;2040;50.924;11.604;2023-05-16T00:42:32;7.77;;;6.57;;
4051;SDS011;2040;50.924;11.604;2023-05-16T00:44:58;12.03;;;8.40;;
4051;SDS011;2040;50.924;11.604;2023-05-16T00:47:24;9.77;;;6.27;;
4051;SDS011;2040;50.924;11.604;2023-05-16T00:49:49;9.00;;;6.23;;
4051;SDS011;2040;50.924;11.604;2023-05-16T00:52:15;7.50;;;5.90;;
4051;SDS011;2040;50.924;11.604;2023-05-16T00:54:40;9.50;;;6.40;;
4051;SDS011;2040;50.924;11.604;2023-05-16T00:57:06;10.17;;;6.00;;
4051;SDS011;2040;50.924;11.604;2023-05-16T00:59:32;10.70;;;5.40;;
4051;SDS011;2040;50.924;11.604;2023-05-16T01:01:58;10.00;;;6.20;;
4051;SDS011;2040;50.924;11.604;2023-05-16T01:04:24;8.13;;;6.23;;
4051;SDS011;2040;50.924;11.604;2023-05-16T01:06:50;13.67;;;6.67;;
4051;SDS011;2040;50.924;11.604;2023-05-16T01:09:16;9.97;;;7.17;;
4051;SDS011;2040;50.924;11.604;2023-05-16T01:14:38;14.50;;;6.37;;
4051;SDS011;2040;50.924;11.604;2023-05-16T01:27:56;10.70;;;7.50;;
4051;SDS011;2040;50.924;11.604;2023-05-16T01:30:23;10.67;;;7.53;;
4051;SDS011;2040;50.924;11.604;2023-05-16T01:32:49;12.60;;;7.90;;
4051;SDS011;2040;50.924;11.604;2023-05-16T01:35:15;9.00;;;7.30;;
4051;SDS011;2040;50.924;11.604;2023-05-16T01:37:43;12.60;;;7.60;;
4051;SDS011;2040;50.924;11.604;2023-05-16T01:40:26;12.57;;;8.37;;
4051;SDS011;2040;50.924;11.604;2023-05-16T01:43:00;12.83;;;7.17;;
4051;SDS011;2040;50.924;11.604;2023-05-16T01:45:30;10.13;;;6.80;;
4051;SDS011;2040;50.924;11.604;2023-05-16T01:48:09;12.67;;;7.70;;
4051;SDS011;2040;50.924;11.604;2023-05-16T01:50:41;11.93;;;8.13;;
4051;SDS011;2040;50.924;11.604;2023-05-16T01:53:11;14.40;;;7.50;;
4051;SDS011;2040;50.924;11.604;2023-05-16T01:55:44;13.00;;;7.90;;
4051;SDS011;2040;50.924;11.604;2023-05-16T01:58:12;14.53;;;7.77;;
4051;SDS011;2040;50.924;11.604;2023-05-16T02:00:39;14.63;;;8.47;;
4051;SDS011;2040;50.924;11.604;2023-05-16T02:03:06;18.67;;;8.83;;
4051;SDS011;2040;50.924;11.604;2023-05-16T02:05:32;15.03;;;8.03;;
4051;SDS011;2040;50.924;11.604;2023-05-16T02:07:58;13.07;;;7.93;;
4051;SDS011;2040;50.924;11.604;2023-05-16T02:10:24;14.93;;;9.70;;
4051;SDS011;2040;50.924;11.604;2023-05-16T02:12:50;15.60;;;9.27;;
4051;SDS011;2040;50.924;11.604;2023-05-16T02:15:16;14.50;;;9.10;;
4051;SDS011;2040;50.924;11.604;2023-05-16T02:17:41;21.27;;;9.00;;
4051;SDS011;2040;50.924;11.604;2023-05-16T02:20:07;14.23;;;9.67;;
4051;SDS011;2040;50.924;11.604;2023-05-16T02:22:34;18.00;;;8.90;;
4051;SDS011;2040;50.924;11.604;2023-05-16T02:25:01;15.43;;;9.73;;
4051;SDS011;2040;50.924;11.604;2023-05-16T02:27:31;19.60;;;9.50;;
4051;SDS011;2040;50.924;11.604;2023-05-16T02:29:57;13.87;;;9.53;;
4051;SDS011;2040;50.924;11.604;2023-05-16T02:32:22;14.40;;;9.50;;
4051;SDS011;2040;50.924;11.604;2023-05-16T02:34:48;11.73;;;9.20;;
4051;SDS011;2040;50.924;11.604;2023-05-16T02:37:14;15.67;;;10.43;;
4051;SDS011;2040;50.924;11.604;2023-05-16T02:39:40;15.80;;;10.13;;
4051;SDS011;2040;50.924;11.604;2023-05-16T02:42:06;14.30;;;9.10;;
4051;SDS011;2040;50.924;11.604;2023-05-16T02:44:31;21.63;;;10.50;;
4051;SDS011;2040;50.924;11.604;2023-05-16T02:46:57;13.20;;;9.83;;
4051;SDS011;2040;50.924;11.604;2023-05-16T02:49:23;17.70;;;10.67;;
4051;SDS011;2040;50.924;11.604;2023-05-16T02:51:49;17.73;;;11.13;;
4051;SDS011;2040;50.924;11.604;2023-05-16T02:54:14;23.20;;;10.70;;
4051;SDS011;2040;50.924;11.604;2023-05-16T02:56:40;18.57;;;11.43;;
4051;SDS011;2040;50.924;11.604;2023-05-16T02:59:06;15.13;;;10.50;;
4051;SDS011;2040;50.924;11.604;2023-05-16T03:01:31;20.27;;;12.10;;
4051;SDS011;2040;50.924;11.604;2023-05-16T03:03:57;17.33;;;10.70;;
4051;SDS011;2040;50.924;11.604;2023-05-16T03:06:22;19.73;;;12.83;;
4051;SDS011;2040;50.924;11.604;2023-05-16T03:08:48;19.17;;;12.20;;
4051;SDS011;2040;50.924;11.604;2023-05-16T03:11:14;22.60;;;12.53;;
4051;SDS011;2040;50.924;11.604;2023-05-16T03:13:43;20.00;;;11.90;;
4051;SDS011;2040;50.924;11.604;2023-05-16T03:16:08;19.93;;;11.10;;
4051;SDS011;2040;50.924;11.604;2023-05-16T03:18:34;21.80;;;11.13;;
4051;SDS011;2040;50.924;11.604;2023-05-16T03:20:59;18.50;;;11.67;;
4051;SDS011;2040;50.924;11.604;2023-05-16T03:23:25;19.07;;;11.30;;
4051;SDS011;2040;50.924;11.604;2023-05-16T03:25:51;21.10;;;11.97;;
4051;SDS011;2040;50.924;11.604;2023-05-16T03:28:17;24.53;;;13.57;;
4051;SDS011;2040;50.924;11.604;2023-05-16T03:30:42;20.40;;;12.53;;
4051;SDS011;2040;50.924;11.604;2023-05-16T03:33:08;23.33;;;13.30;;
4051;SDS011;2040;50.924;11.604;2023-05-16T03:35:34;23.80;;;12.83;;
4051;SDS011;2040;50.924;11.604;2023-05-16T03:38:00;25.87;;;14.10;;
4051;SDS011;2040;50.924;11.604;2023-05-16T03:40:26;26.37;;;14.17;;
4051;SDS011;2040;50.924;11.604;2023-05-16T03:42:52;28.67;;;15.07;;
4051;SDS011;2040;50.924;11.604;2023-05-16T03:45:17;27.00;;;14.30;;
4051;SDS011;2040;50.924;11.604;2023-05-16T03:47:43;22.10;;;13.43;;
4051;SDS011;2040;50.924;11.604;2023-05-16T03:50:09;22.77;;;14.10;;
4051;SDS011;2040;50.924;11.604;2023-05-16T03:52:34;24.47;;;12.17;;
4051;SDS011;2040;50.924;11.604;2023-05-16T03:55:00;22.30;;;13.90;;
4051;SDS011;2040;50.924;11.604;2023-05-16T03:57:29;20.93;;;13.10;;
4051;SDS011;2040;50.924;11.604;2023-05-16T03:59:56;19.63;;;12.20;;
4051;SDS011;2040;50.924;11.604;2023-05-16T04:02:21;21.30;;;13.03;;
4051;SDS011;2040;50.924;11.604;2023-05-16T04:04:47;22.53;;;13.33;;
4051;SDS011;2040;50.924;11.604;2023-05-16T04:07:13;21.33;;;13.07;;
4051;SDS011;2040;50.924;11.604;2023-05-16T04:09:38;19.70;;;12.70;;
4051;SDS011;2040;50.924;11.604;2023-05-16T04:12:04;22.30;;;12.53;;
4051;SDS011;2040;50.924;11.604;2023-05-16T04:14:30;22.97;;;12.93;;
4051;SDS011;2040;50.924;11.604;2023-05-16T04:16:56;18.10;;;10.80;;
4051;SDS011;2040;50.924;11.604;2023-05-16T04:19:21;21.30;;;12.90;;
4051;SDS011;2040;50.924;11.604;2023-05-16T04:21:47;20.13;;;13.40;;
4051;SDS011;2040;50.924;11.604;2023-05-16T04:24:12;20.67;;;12.77;;
4051;SDS011;2040;50.924;11.604;2023-05-16T04:26:38;18.57;;;12.87;;
4051;SDS011;2040;50.924;11.604;2023-05-16T04:29:04;21.23;;;11.83;;
4051;SDS011;2040;50.924;11.604;2023-05-16T04:31:30;23.20;;;11.80;;
4051;SDS011;2040;50.924;11.604;2023-05-16T04:33:55;25.33;;;12.03;;
4051;SDS011;2040;50.924;11.604;2023-05-16T04:36:22;22.03;;;12.50;;
4051;SDS011;2040;50.924;11.604;2023-05-16T04:38:47;17.57;;;11.50;;
4051;SDS011;2040;50.924;11.604;2023-05-16T04:41:13;27.43;;;12.30;;
4051;SDS011;2040;50.924;11.604;2023-05-16T04:43:39;20.47;;;11.70;;
4051;SDS011;2040;50.924;11.604;2023-05-16T04:46:05;20.63;;;10.50;;
4051;SDS011;2040;50.924;11.604;2023-05-16T04:48:32;23.80;;;10.77;;
4051;SDS011;2040;50.924;11.604;2023-05-16T04:50:58;17.83;;;8.80;;
4051;SDS011;2040;50.924;11.604;2023-05-16T04:53:23;19.77;;;10.23;;
4051;SDS011;2040;50.924;11.604;2023-05-16T04:55:49;15.33;;;8.80;;
4051;SDS011;2040;50.924;11.604;2023-05-16T04:58:15;13.47;;;8.57;;
4051;SDS011;2040;50.924;11.604;2023-05-16T05:00:40;19.33;;;8.80;;
4051;SDS011;2040;50.924;11.604;2023-05-16T05:03:06;15.97;;;8.73;;
4051;SDS011;2040;50.924;11.604;2023-05-16T05:05:32;13.60;;;8.07;;
4051;SDS011;2040;50.924;11.604;2023-05-16T05:07:57;13.80;;;8.77;;
4051;SDS011;2040;50.924;11.604;2023-05-16T05:10:24;14.10;;;8.57;;
4051;SDS011;2040;50.924;11.604;2023-05-16T05:12:51;11.50;;;7.60;;
4051;SDS011;2040;50.924;11.604;2023-05-16T05:15:17;17.17;;;8.33;;
4051;SDS011;2040;50.924;11.604;2023-05-16T05:17:43;13.80;;;7.70;;
4051;SDS011;2040;50.924;11.604;2023-05-16T05:20:09;14.33;;;7.50;;
4051;SDS011;2040;50.924;11.604;2023-05-16T05:22:35;10.90;;;7.13;;
4051;SDS011;2040;50.924;11.604;2023-05-16T05:25:01;15.70;;;6.83;;
4051;SDS011;2040;50.924;11.604;2023-05-16T05:27:27;15.47;;;8.53;;
4051;SDS011;2040;50.924;11.604;2023-05-16T05:29:52;17.20;;;8.47;;
4051;SDS011;2040;50.924;11.604;2023-05-16T05:32:18;12.17;;;7.47;;
4051;SDS011;2040;50.924;11.604;2023-05-16T05:34:43;11.10;;;7.33;;
4051;SDS011;2040;50.924;11.604;2023-05-16T05:37:09;11.47;;;7.67;;
4051;SDS011;2040;50.924;11.604;2023-05-16T05:39:35;15.03;;;7.30;;
4051;SDS011;2040;50.924;11.604;2023-05-16T05:42:00;14.87;;;7.17;;
4051;SDS011;2040;50.924;11.604;2023-05-16T05:44:29;12.53;;;7.50;;
4051;SDS011;2040;50.924;11.604;2023-05-16T05:46:55;12.03;;;7.20;;
4051;SDS011;2040;50.924;11.604;2023-05-16T05:49:21;14.47;;;7.17;;
4051;SDS011;2040;50.924;11.604;2023-05-16T05:51:50;10.87;;;6.37;;
4051;SDS011;2040;50.924;11.604;2023-05-16T05:54:17;11.30;;;6.67;;
4051;SDS011;2040;50.924;11.604;2023-05-16T05:56:43;11.50;;;6.43;;
4051;SDS011;2040;50.924;11.604;2023-05-16T05:59:08;13.13;;;7.00;;
4051;SDS011;2040;50.924;11.604;2023-05-16T06:01:34;10.67;;;6.23;;
4051;SDS011;2040;50.924;11.604;2023-05-16T06:04:00;11.80;;;7.20;;
4051;SDS011;2040;50.924;11.604;2023-05-16T06:06:25;12.90;;;7.27;;
4051;SDS011;2040;50.924;11.604;2023-05-16T06:08:51;7.77;;;5.53;;
4051;SDS011;2040;50.924;11.604;2023-05-16T06:11:17;10.33;;;6.00;;
4051;SDS011;2040;50.924;11.604;2023-05-16T06:13:42;9.30;;;6.40;;
4051;SDS011;2040;50.924;11.604;2023-05-16T06:16:08;10.00;;;6.80;;
4051;SDS011;2040;50.924;11.604;2023-05-16T06:18:33;9.87;;;5.50;;
4051;SDS011;2040;50.924;11.604;2023-05-16T06:20:59;8.50;;;5.73;;
4051;SDS011;2040;50.924;11.604;2023-05-16T06:23:25;8.93;;;5.47;;
4051;SDS011;2040;50.924;11.604;2023-05-16T06:25:51;12.23;;;5.90;;
4051;SDS011;2040;50.924;11.604;2023-05-16T06:28:16;8.97;;;5.80;;
4051;SDS011;2040;50.924;11.604;2023-05-16T06:30:42;9.73;;;6.17;;
4051;SDS011;2040;50.924;11.604;2023-05-16T06:33:08;13.43;;;6.47;;
4051;SDS011;2040;50.924;11.604;2023-05-16T06:35:33;9.63;;;5.93;;
4051;SDS011;2040;50.924;11.604;2023-05-16T06:37:59;8.30;;;5.30;;
4051;SDS011;2040;50.924;11.604;2023-05-16T06:40:24;8.47;;;5.23;;
4051;SDS011;2040;50.924;11.604;2023-05-16T06:42:50;10.57;;;4.80;;
4051;SDS011;2040;50.924;11.604;2023-05-16T06:45:15;10.13;;;6.37;;
4051;SDS011;2040;50.924;11.604;2023-05-16T06:47:41;9.50;;;5.50;;
4051;SDS011;2040;50.924;11.604;2023-05-16T06:50:07;10.17;;;6.30;;
4051;SDS011;2040;50.924;11.604;2023-05-16T06:52:32;9.07;;;5.80;;
4051;SDS011;2040;50.924;11.604;2023-05-16T06:54:58;8.80;;;5.63;;
4051;SDS011;2040;50.924;11.604;2023-05-16T06:57:23;7.20;;;4.90;;
4051;SDS011;2040;50.924;11.604;2023-05-16T06:59:50;9.90;;;5.47;;
4051;SDS011;2040;50.924;11.604;2023-05-16T07:02:15;9.83;;;5.70;;
4051;SDS011;2040;50.924;11.604;2023-05-16T07:04:41;8.33;;;5.30;;
4051;SDS011;2040;50.924;11.604;2023-05-16T07:07:06;8.80;;;5.20;;
4051;SDS011;2040;50.924;11.604;2023-05-16T07:09:33;9.07;;;5.57;;
4051;SDS011;2040;50.924;11.604;2023-05-16T07:11:59;6.23;;;4.10;;
4051;SDS011;2040;50.924;11.604;2023-05-16T07:14:24;7.57;;;5.00;;
4051;SDS011;2040;50.924;11.604;2023-05-16T07:16:50;11.40;;;5.60;;
4051;SDS011;2040;50.924;11.604;2023-05-16T07:19:15;7.60;;;5.10;;
4051;SDS011;2040;50.924;11.604;2023-05-16T07:21:41;8.10;;;5.50;;
4051;SDS011;2040;50.924;11.604;2023-05-16T07:24:07;7.17;;;5.07;;
4051;SDS011;2040;50.924;11.604;2023-05-16T07:26:32;9.70;;;5.37;;
4051;SDS011;2040;50.924;11.604;2023-05-16T07:28:58;7.23;;;4.63;;
4051;SDS011;2040;50.924;11.604;2023-05-16T07:31:23;6.90;;;4.20;;
4051;SDS011;2040;50.924;11.604;2023-05-16T07:33:49;7.23;;;4.70;;
4051;SDS011;2040;50.924;11.604;2023-05-16T07:36:15;7.30;;;4.30;;
4051;SDS011;2040;50.924;11.604;2023-05-16T07:38:40;7.13;;;4.50;;
4051;SDS011;2040;50.924;11.604;2023-05-16T07:41:06;9.60;;;4.10;;
4051;SDS011;2040;50.924;11.604;2023-05-16T07:43:32;6.57;;;4.00;;
4051;SDS011;2040;50.924;11.604;2023-05-16T07:46:00;10.87;;;4.33;;
4051;SDS011;2040;50.924;11.604;2023-05-16T07:48:26;7.33;;;4.40;;
4051;SDS011;2040;50.924;11.604;2023-05-16T07:50:51;7.97;;;4.30;;
4051;SDS011;2040;50.924;11.604;2023-05-16T07:53:17;10.20;;;5.37;;
4051;SDS011;2040;50.924;11.604;2023-05-16T07:55:43;4.93;;;4.10;;
4051;SDS011;2040;50.924;11.604;2023-05-16T07:58:08;11.00;;;4.60;;
4051;SDS011;2040;50.924;11.604;2023-05-16T08:00:34;5.27;;;3.67;;
4051;SDS011;2040;50.924;11.604;2023-05-16T08:03:00;6.17;;;4.60;;
4051;SDS011;2040;50.924;11.604;2023-05-16T08:05:25;6.13;;;4.10;;
4051;SDS011;2040;50.924;11.604;2023-05-16T08:07:51;12.80;;;4.50;;
4051;SDS011;2040;50.924;11.604;2023-05-16T08:10:16;6.37;;;3.60;;
4051;SDS011;2040;50.924;11.604;2023-05-16T08:12:42;8.43;;;3.90;;
4051;SDS011;2040;50.924;11.604;2023-05-16T08:15:08;7.03;;;4.63;;
4051;SDS011;2040;50.924;11.604;2023-05-16T08:17:34;5.77;;;3.73;;
4051;SDS011;2040;50.924;11.604;2023-05-16T08:19:59;5.90;;;3.50;;
4051;SDS011;2040;50.924;11.604;2023-05-16T08:22:26;7.10;;;4.93;;
4051;SDS011;2040;50.924;11.604;2023-05-16T08:24:51;6.80;;;3.53;;
4051;SDS011;2040;50.924;11.604;2023-05-16T08:27:21;8.50;;;4.00;;
4051;SDS011;2040;50.924;11.604;2023-05-16T08:29:50;9.00;;;4.10;;
4051;SDS011;2040;50.924;11.604;2023-05-16T08:32:16;4.30;;;3.27;;
4051;SDS011;2040;50.924;11.604;2023-05-16T08:34:41;4.30;;;3.43;;
4051;SDS011;2040;50.924;11.604;2023-05-16T08:37:07;5.70;;;3.70;;
4051;SDS011;2040;50.924;11.604;2023-05-16T08:39:32;6.30;;;3.70;;
4051;SDS011;2040;50.924;11.604;2023-05-16T08:41:58;7.77;;;4.40;;
4051;SDS011;2040;50.924;11.604;2023-05-16T08:44:24;4.87;;;3.43;;
4051;SDS011;2040;50.924;11.604;2023-05-16T08:46:51;4.43;;;3.33;;
4051;SDS011;2040;50.924;11.604;2023-05-16T08:49:17;9.60;;;4.57;;
4051;SDS011;2040;50.924;11.604;2023-05-16T08:51:47;4.80;;;3.60;;
4051;SDS011;2040;50.924;11.604;2023-05-16T08:54:15;5.37;;;3.70;;
4051;SDS011;2040;50.924;11.604;2023-05-16T08:56:41;4.50;;;3.43;;
4051;SDS011;2040;50.924;11.604;2023-05-16T08:59:07;5.63;;;4.07;;
4051;SDS011;2040;50.924;11.604;2023-05-16T09:01:33;6.10;;;4.07;;
4051;SDS011;2040;50.924;11.604;2023-05-16T09:04:00;5.10;;;3.57;;
4051;SDS011;2040;50.924;11.604;2023-05-16T09:06:27;5.80;;;3.83;;
4051;SDS011;2040;50.924;11.604;2023-05-16T09:08:53;6.67;;;3.97;;
4051;SDS011;2040;50.924;11.604;2023-05-16T09:11:19;6.20;;;3.70;;
4051;SDS011;2040;50.924;11.604;2023-05-16T09:13:45;5.13;;;3.70;;
4051;SDS011;2040;50.924;11.604;2023-05-16T09:18:39;4.57;;;3.23;;
4051;SDS011;2040;50.924;11.604;2023-05-16T09:21:07;5.67;;;3.60;;
4051;SDS011;2040;50.924;11.604;2023-05-16T09:23:35;8.70;;;3.60;;
4051;SDS011;2040;50.924;11.604;2023-05-16T09:26:01;6.00;;;3.73;;
4051;SDS011;2040;50.924;11.604;2023-05-16T09:28:29;7.70;;;3.50;;
4051;SDS011;2040;50.924;11.604;2023-05-16T09:30:55;5.70;;;3.20;;
4051;SDS011;2040;50.924;11.604;2023-05-16T09:33:25;9.93;;;4.27;;
4051;SDS011;2040;50.924;11.604;2023-05-16T09:35:56;6.50;;;3.30;;
4051;SDS011;2040;50.924;11.604;2023-05-16T09:38:24;4.47;;;2.80;;
4051;SDS011;2040;50.924;11.604;2023-05-16T09:40:51;6.50;;;4.00;;
4051;SDS011;2040;50.924;11.604;2023-05-16T09:43:17;6.83;;;3.93;;
4051;SDS011;2040;50.924;11.604;2023-05-16T09:45:46;5.50;;;4.10;;
4051;SDS011;2040;50.924;11.604;2023-05-16T09:48:12;4.80;;;3.53;;
4051;SDS011;2040;50.924;11.604;2023-05-16T09:50:39;5.20;;;3.70;;
4051;SDS011;2040;50.924;11.604;2023-05-16T09:53:11;5.93;;;3.30;;
4051;SDS011;2040;50.924;11.604;2023-05-16T09:55:38;5.50;;;2.97;;
4051;SDS011;2040;50.924;11.604;2023-05-16T09:58:03;3.83;;;2.70;;
4051;SDS011;2040;50.924;11.604;2023-05-16T10:00:29;6.23;;;3.43;;
4051;SDS011;2040;50.924;11.604;2023-05-16T10:02:57;8.10;;;2.80;;
4051;SDS011;2040;50.924;11.604;2023-05-16T10:05:24;8.93;;;3.10;;
4051;SDS011;2040;50.924;11.604;2023-05-16T10:07:52;6.40;;;2.60;;
4051;SDS011;2040;50.924;11.604;2023-05-16T10:10:20;12.57;;;3.00;;
4051;SDS011;2040;50.924;11.604;2023-05-16T10:12:46;4.80;;;3.13;;
4051;SDS011;2040;50.924;11.604;2023-05-16T10:15:13;5.80;;;3.07;;
4051;SDS011;2040;50.924;11.604;2023-05-16T10:17:41;4.10;;;3.40;;
4051;SDS011;2040;50.924;11.604;2023-05-16T10:20:10;4.40;;;2.90;;
4051;SDS011;2040;50.924;11.604;2023-05-16T10:22:40;5.07;;;3.40;;
4051;SDS011;2040;50.924;11.604;2023-05-16T10:25:15;4.63;;;3.13;;
4051;SDS011;2040;50.924;11.604;2023-05-16T10:27:49;4.00;;;3.13;;
4051;SDS011;2040;50.924;11.604;2023-05-16T10:30:16;3.90;;;3.10;;
4051;SDS011;2040;50.924;11.604;2023-05-16T10:32:42;4.60;;;3.57;;
4051;SDS011;2040;50.924;11.604;2023-05-16T10:35:10;4.80;;;3.03;;
4051;SDS011;2040;50.924;11.604;2023-05-16T10:37:36;4.63;;;3.40;;
4051;SDS011;2040;50.924;11.604;2023-05-16T10:40:02;17.30;;;3.90;;
4051;SDS011;2040;50.924;11.604;2023-05-16T10:42:33;6.20;;;3.60;;
4051;SDS011;2040;50.924;11.604;2023-05-16T10:45:18;5.77;;;3.70;;
4051;SDS011;2040;50.924;11.604;2023-05-16T10:47:51;6.43;;;3.10;;
4051;SDS011;2040;50.924;11.604;2023-05-16T10:50:31;11.53;;;3.63;;
4051;SDS011;2040;50.924;11.604;2023-05-16T11:06:29;4.13;;;2.23;;
4051;SDS011;2040;50.924;11.604;2023-05-16T11:08:59;2.27;;;1.90;;
4051;SDS011;2040;50.924;11.604;2023-05-16T11:14:23;2.53;;;1.37;;
4051;SDS011;2040;50.924;11.604;2023-05-16T11:16:51;7.50;;;3.07;;
4051;SDS011;2040;50.924;11.604;2023-05-16T11:19:39;4.30;;;1.87;;
4051;SDS011;2040;50.924;11.604;2023-05-16T11:24:54;3.57;;;2.10;;
4051;SDS011;2040;50.924;11.604;2023-05-16T11:27:31;2.60;;;1.77;;
4051;SDS011;2040;50.924;11.604;2023-05-16T11:32:29;4.60;;;1.70;;
4051;SDS011;2040;50.924;11.604;2023-05-16T11:34:57;1.50;;;1.30;;
4051;SDS011;2040;50.924;11.604;2023-05-16T11:37:23;2.80;;;1.70;;
4051;SDS011;2040;50.924;11.604;2023-05-16T11:39:49;3.73;;;1.93;;
4051;SDS011;2040;50.924;11.604;2023-05-16T11:42:15;2.27;;;1.30;;
4051;SDS011;2040;50.924;11.604;2023-05-16T11:44:42;2.53;;;1.57;;
4051;SDS011;2040;50.924;11.604;2023-05-16T11:47:08;2.50;;;1.87;;
4051;SDS011;2040;50.924;11.604;2023-05-16T11:49:33;3.60;;;2.10;;
4051;SDS011;2040;50.924;11.604;2023-05-16T11:51:59;1.83;;;1.50;;
4051;SDS011;2040;50.924;11.604;2023-05-16T11:54:25;5.80;;;1.97;;
4051;SDS011;2040;50.924;11.604;2023-05-16T11:56:51;1.93;;;1.70;;
4051;SDS011;2040;50.924;11.604;2023-05-16T11:59:17;7.00;;;1.67;;
4051;SDS011;2040;50.924;11.604;2023-05-16T12:01:43;2.20;;;1.60;;
4051;SDS011;2040;50.924;11.604;2023-05-16T12:04:13;2.67;;;1.90;;
4051;SDS011;2040;50.924;11.604;2023-05-16T12:06:40;5.53;;;1.63;;
4051;SDS011;2040;50.924;11.604;2023-05-16T12:09:13;6.93;;;1.77;;
4051;SDS011;2040;50.924;11.604;2023-05-16T12:11:41;2.30;;;1.50;;
4051;SDS011;2040;50.924;11.604;2023-05-16T12:14:09;1.50;;;1.40;;
4051;SDS011;2040;50.924;11.604;2023-05-16T12:16:36;6.13;;;1.87;;
4051;SDS011;2040;50.924;11.604;2023-05-16T12:19:06;3.27;;;1.60;;
4051;SDS011;2040;50.924;11.604;2023-05-16T12:21:32;3.37;;;1.20;;
4051;SDS011;2040;50.924;11.604;2023-05-16T12:23:58;4.27;;;2.10;;
4051;SDS011;2040;50.924;11.604;2023-05-16T12:26:28;2.30;;;2.00;;
4051;SDS011;2040;50.924;11.604;2023-05-16T12:28:58;3.20;;;1.30;;
4051;SDS011;2040;50.924;11.604;2023-05-16T12:31:27;7.40;;;1.77;;
4051;SDS011;2040;50.924;11.604;2023-05-16T12:33:54;6.10;;;1.97;;
4051;SDS011;2040;50.924;11.604;2023-05-16T12:36:20;2.70;;;1.80;;
4051;SDS011;2040;50.924;11.604;2023-05-16T12:38:47;9.23;;;2.00;;
4051;SDS011;2040;50.924;11.604;2023-05-16T12:41:17;2.33;;;1.60;;
4051;SDS011;2040;50.924;11.604;2023-05-16T12:43:44;3.13;;;1.90;;
4051;SDS011;2040;50.924;11.604;2023-05-16T12:46:09;4.33;;;2.10;;
4051;SDS011;2040;50.924;11.604;2023-05-16T12:48:38;5.70;;;1.60;;
4051;SDS011;2040;50.924;11.604;2023-05-16T12:51:16;2.73;;;1.70;;
4051;SDS011;2040;50.924;11.604;2023-05-16T12:53:48;5.33;;;1.90;;
4051;SDS011;2040;50.924;11.604;2023-05-16T12:56:14;2.93;;;2.20;;
4051;SDS011;2040;50.924;11.604;2023-05-16T12:58:40;5.20;;;2.63;;
4051;SDS011;2040;50.924;11.604;2023-05-16T13:01:06;7.40;;;2.07;;
4051;SDS011;2040;50.924;11.604;2023-05-16T13:03:32;4.37;;;2.23;;
4051;SDS011;2040;50.924;11.604;2023-05-16T13:05:59;3.37;;;2.00;;
4051;SDS011;2040;50.924;11.604;2023-05-16T13:08:26;5.10;;;2.17;;
4051;SDS011;2040;50.924;11.604;2023-05-16T13:10:52;2.90;;;1.63;;
4051;SDS011;2040;50.924;11.604;2023-05-16T13:13:18;5.00;;;2.07;;
4051;SDS011;2040;50.924;11.604;2023-05-16T13:15:44;4.60;;;2.40;;
4051;SDS011;2040;50.924;11.604;2023-05-16T13:18:10;4.50;;;2.07;;
4051;SDS011;2040;50.924;11.604;2023-05-16T13:20:35;5.83;;;1.73;;
4051;SDS011;2040;50.924;11.604;2023-05-16T13:23:02;4.33;;;2.30;;
4051;SDS011;2040;50.924;11.604;2023-05-16T13:25:29;7.67;;;2.67;;
4051;SDS011;2040;50.924;11.604;2023-05-16T13:27:55;7.03;;;2.47;;
4051;SDS011;2040;50.924;11.604;2023-05-16T13:30:20;9.60;;;3.10;;
4051;SDS011;2040;50.924;11.604;2023-05-16T13:32:46;11.10;;;3.03;;
4051;SDS011;2040;50.924;11.604;2023-05-16T13:35:12;9.30;;;2.73;;
4051;SDS011;2040;50.924;11.604;2023-05-16T13:37:37;6.80;;;2.53;;
4051;SDS011;2040;50.924;11.604;2023-05-16T13:40:03;11.70;;;2.20;;
4051;SDS011;2040;50.924;11.604;2023-05-16T13:42:32;3.43;;;2.27;;
4051;SDS011;2040;50.924;11.604;2023-05-16T13:44:57;3.43;;;1.83;;
4051;SDS011;2040;50.924;11.604;2023-05-16T13:47:24;6.37;;;2.27;;
4051;SDS011;2040;50.924;11.604;2023-05-16T13:49:50;5.03;;;2.23;;
4051;SDS011;2040;50.924;11.604;2023-05-16T13:52:15;5.20;;;2.63;;
4051;SDS011;2040;50.924;11.604;2023-05-16T13:54:41;8.50;;;2.30;;
4051;SDS011;2040;50.924;11.604;2023-05-16T13:57:06;4.93;;;2.20;;
4051;SDS011;2040;50.924;11.604;2023-05-16T13:59:32;3.53;;;1.93;;
4051;SDS011;2040;50.924;11.604;2023-05-16T14:01:58;4.13;;;1.80;;
4051;SDS011;2040;50.924;11.604;2023-05-16T14:04:23;3.70;;;1.97;;
4051;SDS011;2040;50.924;11.604;2023-05-16T14:06:50;8.07;;;1.70;;
4051;SDS011;2040;50.924;11.604;2023-05-16T14:09:16;2.47;;;1.57;;
4051;SDS011;2040;50.924;11.604;2023-05-16T14:11:41;3.70;;;1.53;;
4051;SDS011;2040;50.924;11.604;2023-05-16T14:14:07;3.73;;;1.57;;
4051;SDS011;2040;50.924;11.604;2023-05-16T14:16:32;3.10;;;1.40;;
4051;SDS011;2040;50.924;11.604;2023-05-16T14:18:58;4.93;;;2.37;;
4051;SDS011;2040;50.924;11.604;2023-05-16T14:21:23;4.83;;;1.50;;
4051;SDS011;2040;50.924;11.604;2023-05-16T14:23:49;2.00;;;1.50;;
4051;SDS011;2040;50.924;11.604;2023-05-16T14:26:14;8.00;;;1.80;;
4051;SDS011;2040;50.924;11.604;2023-05-16T14:28:40;5.97;;;1.63;;
4051;SDS011;2040;50.924;11.604;2023-05-16T14:31:06;5.47;;;1.47;;
4051;SDS011;2040;50.924;11.604;2023-05-16T14:33:31;3.83;;;1.70;;
4051;SDS011;2040;50.924;11.604;2023-05-16T14:35:57;9.17;;;2.17;;
4051;SDS011;2040;50.924;11.604;2023-05-16T14:38:23;1.90;;;1.20;;
4051;SDS011;2040;50.924;11.604;2023-05-16T14:40:48;4.60;;;1.40;;
4051;SDS011;2040;50.924;11.604;2023-05-16T14:43:14;5.27;;;1.70;;
4051;SDS011;2040;50.924;11.604;2023-05-16T14:45:40;2.93;;;1.23;;
4051;SDS011;2040;50.924;11.604;2023-05-16T14:48:06;4.43;;;1.40;;
4051;SDS011;2040;50.924;11.604;2023-05-16T14:50:33;9.33;;;2.00;;
4051;SDS011;2040;50.924;11.604;2023-05-16T14:52:59;3.60;;;1.83;;
4051;SDS011;2040;50.924;11.604;2023-05-16T14:55:25;2.60;;;1.33;;
4051;SDS011;2040;50.924;11.604;2023-05-16T14:57:51;5.97;;;2.03;;
4051;SDS011;2040;50.924;11.604;2023-05-16T15:00:20;5.40;;;1.80;;
4051;SDS011;2040;50.924;11.604;2023-05-16T15:02:48;5.33;;;1.43;;
4051;SDS011;2040;50.924;11.604;2023-05-16T15:05:13;6.60;;;2.30;;
4051;SDS011;2040;50.924;11.604;2023-05-16T15:07:39;5.33;;;2.20;;
4051;SDS011;2040;50.924;11.604;2023-05-16T15:10:05;7.33;;;1.93;;
4051;SDS011;2040;50.924;11.604;2023-05-16T15:12:31;4.03;;;1.57;;
4051;SDS011;2040;50.924;11.604;2023-05-16T15:14:56;5.57;;;1.40;;
4051;SDS011;2040;50.924;11.604;2023-05-16T15:17:22;2.70;;;1.40;;
4051;SDS011;2040;50.924;11.604;2023-05-16T15:19:47;4.10;;;1.37;;
4051;SDS011;2040;50.924;11.604;2023-05-16T15:22:13;8.90;;;1.47;;
4051;SDS011;2040;50.924;11.604;2023-05-16T15:24:39;8.43;;;1.40;;
4051;SDS011;2040;50.924;11.604;2023-05-16T15:27:04;4.13;;;1.33;;